createdAt,value
2022-08-20T09:25:36.925Z,101646.66
2022-08-20T09:30:39.126Z,101648.50
2022-08-20T10:21:15.852Z,101630.94
2022-08-20T10:26:17.664Z,101627.66
2022-08-20T10:31:19.470Z,101636.38
2022-08-20T10:36:21.597Z,101620.72
2022-08-20T10:41:23.365Z,101621.16
2022-08-20T10:46:25.349Z,101611.03
2022-08-20T10:51:32.630Z,101621.03
2022-08-20T10:56:34.696Z,101613.09
2022-08-20T11:01:36.926Z,101614.75
2022-08-20T11:06:38.843Z,101617.53
2022-08-20T11:11:40.595Z,101614.84
2022-08-20T11:16:42.410Z,101619.75
2022-08-20T11:21:44.155Z,101626.28
2022-08-20T11:26:50.370Z,101621.81
2022-08-20T11:31:52.146Z,101620.53
2022-08-20T11:36:53.818Z,101622.25
2022-08-20T11:41:55.781Z,101618.06
2022-08-20T11:47:03.498Z,101619.25
2022-08-20T11:52:05.856Z,101619.09
2022-08-20T11:57:07.561Z,101624.66
2022-08-20T12:02:12.524Z,101620.69
2022-08-20T12:07:17.748Z,101624.69
2022-08-20T12:12:22.458Z,101615.88
2022-08-20T12:17:26.795Z,101618.50
2022-08-20T12:22:28.484Z,101607.59
2022-08-20T12:27:32.466Z,101609.09
2022-08-20T12:32:34.394Z,101614.91
2022-08-20T12:37:36.740Z,101615.22
2022-08-20T12:42:38.544Z,101619.84
2022-08-20T12:47:44.944Z,101619.19
2022-08-20T12:52:48.271Z,101624.97
2022-08-20T12:57:53.872Z,101626.28
2022-08-20T13:02:57.864Z,101622.50
2022-08-20T13:08:00.063Z,101634.44
2022-08-20T13:13:02.959Z,101634.66
2022-08-20T13:18:06.435Z,101618.94
2022-08-20T13:23:08.119Z,101613.03
2022-08-20T13:28:10.383Z,101618.06
2022-08-20T13:33:12.002Z,101620.78
2022-08-20T13:38:13.647Z,101628.28
2022-08-20T13:43:15.616Z,101629.13
2022-08-20T13:48:17.261Z,101631.97
2022-08-20T13:53:18.965Z,101630.59
2022-08-20T13:58:22.860Z,101634.25
2022-08-20T14:03:25.522Z,101637.47
2022-08-20T14:08:29.198Z,101630.16
2022-08-20T14:13:31.115Z,101630.09
2022-08-20T14:18:32.943Z,101634.13
2022-08-20T14:23:36.859Z,101626.19
2022-08-20T14:28:38.847Z,101633.13
2022-08-20T14:33:44.579Z,101629.22
2022-08-20T14:38:46.583Z,101628.38
2022-08-20T14:43:48.295Z,101625.88
2022-08-20T14:48:52.526Z,101631.94
2022-08-20T14:53:55.180Z,101630.88
2022-08-20T14:58:56.995Z,101628.59
2022-08-20T15:03:58.761Z,101629.44
2022-08-20T15:09:00.589Z,101621.75
2022-08-20T15:14:02.276Z,101626.88
2022-08-20T15:19:04.260Z,101615.75
2022-08-20T15:24:15.760Z,101618.44
2022-08-20T15:29:40.059Z,101628.31
2022-08-20T15:34:42.368Z,101636.06
2022-08-20T15:39:45.304Z,101633.34
2022-08-20T15:44:47.833Z,101624.22
2022-08-20T15:49:52.854Z,101633.25
2022-08-20T15:54:55.054Z,101635.13
2022-08-20T16:00:07.124Z,101624.91
2022-08-20T16:05:14.734Z,101629.94
2022-08-20T16:10:26.791Z,101634.19
2022-08-20T16:15:31.773Z,101628.25
2022-08-20T16:20:39.724Z,101622.69
2022-08-20T16:26:17.366Z,101619.38
2022-08-20T16:31:23.678Z,101624.06
2022-08-20T16:36:42.119Z,101628.25
2022-08-20T16:41:46.046Z,101623.75
2022-08-20T16:46:57.941Z,101634.66
2022-08-20T16:52:00.496Z,101630.59
2022-08-20T16:57:06.078Z,101635.75
2022-08-20T17:02:10.916Z,101629.25
2022-08-20T17:07:12.716Z,101626.88
2022-08-20T17:12:27.806Z,101628.56
2022-08-20T17:17:32.856Z,101619.78
2022-08-20T17:22:42.214Z,101621.97
2022-08-20T17:27:44.818Z,101621.19
2022-08-20T17:32:59.262Z,101620.28
2022-08-20T17:38:02.776Z,101618.53
2022-08-20T17:43:09.516Z,101610.88
2022-08-20T17:48:21.809Z,101621.97
2022-08-20T17:53:27.444Z,101617.50
2022-08-20T17:58:41.759Z,101614.94
2022-08-20T18:03:57.706Z,101623.69
2022-08-20T18:09:20.467Z,101614.78
2022-08-20T18:14:33.871Z,101611.44
2022-08-20T18:19:50.853Z,101617.53
2022-08-20T18:25:01.419Z,101617.06
2022-08-20T18:30:13.092Z,101620.38
2022-08-20T18:35:39.663Z,101623.78
2022-08-20T18:40:50.868Z,101616.19
2022-08-20T18:46:18.767Z,101626.69
2022-08-20T18:51:26.054Z,101615.56
2022-08-20T18:56:39.397Z,101619.78
2022-08-20T19:01:42.651Z,101627.03
2022-08-20T19:07:01.842Z,101630.50
2022-08-20T19:12:23.192Z,101620.66
2022-08-20T19:17:52.830Z,101620.19
2022-08-20T19:23:00.060Z,101614.59
2022-08-20T19:28:21.858Z,101615.44
2022-08-20T19:33:31.429Z,101623.69
2022-08-20T19:38:52.530Z,101621.81
2022-08-20T19:43:55.157Z,101621.34
2022-08-20T19:49:24.708Z,101621.72
2022-08-20T19:54:28.574Z,101609.56
2022-08-20T19:59:30.383Z,101611.16
2022-08-20T20:04:54.877Z,101609.97
2022-08-20T20:10:00.889Z,101611.63
2022-08-20T20:15:05.808Z,101603.56
2022-08-20T20:20:57.097Z,101612.47
2022-08-20T20:26:03.265Z,101596.50
2022-08-20T20:31:07.289Z,101595.97
2022-08-20T20:36:12.429Z,101592.03
2022-08-20T20:41:26.966Z,101579.78
2022-08-20T20:46:30.905Z,101580.94
2022-08-20T20:51:36.565Z,101583.53
2022-08-20T20:56:43.129Z,101578.22
2022-08-20T21:01:53.155Z,101573.81
2022-08-20T21:07:00.152Z,101574.28
2022-08-20T21:12:03.354Z,101579.81
2022-08-20T21:17:08.666Z,101582.41
2022-08-20T21:22:10.704Z,101583.41
2022-08-20T21:27:12.947Z,101584.47
2022-08-20T21:32:18.370Z,101591.31
2022-08-20T21:37:20.131Z,101595.09
2022-08-20T21:42:29.183Z,101585.25
2022-08-20T21:47:31.522Z,101585.25
2022-08-20T21:52:33.492Z,101576.22
2022-08-20T21:57:37.614Z,101572.38
2022-08-20T22:02:40.848Z,101571.06
2022-08-20T22:07:43.404Z,101570.22
2022-08-20T22:12:45.581Z,101569.78
2022-08-20T22:17:47.248Z,101573.25
2022-08-20T22:22:49.120Z,101568.41
2022-08-20T22:27:50.899Z,101566.09
2022-08-20T22:32:58.860Z,101560.09
2022-08-20T22:38:01.296Z,101556.22
2022-08-20T22:43:03.059Z,101554.94
2022-08-20T22:48:08.479Z,101542.91
2022-08-20T22:53:11.685Z,101551.72
2022-08-20T22:58:13.374Z,101552.16
2022-08-20T23:03:19.821Z,101541.44
2022-08-20T23:08:41.805Z,101536.94
2022-08-20T23:13:43.532Z,101537.81
2022-08-20T23:18:45.230Z,101534.19
2022-08-20T23:23:47.050Z,101533.53
2022-08-20T23:28:49.104Z,101531.63
2022-08-20T23:33:50.747Z,101535.66
2022-08-20T23:38:52.918Z,101538.69
2022-08-20T23:43:54.503Z,101538.91
2022-08-20T23:48:56.103Z,101525.59
2022-08-20T23:53:57.800Z,101530.97
2022-08-20T23:58:59.499Z,101519.81
